This is the latest recevied weather packets stored in our database for station/object E22FEY-1. If no packets are shown the sender has not sent any weather packets the latest 10 day(s).
| Time | Temp. | Humidity | Pressure | Rain* | Wind** | Luminosity | Snow |
|---|---|---|---|---|---|---|---|
| 1777716050 | 36.67° C | 41% | 1005 hPa | - | - | 0 W/m² | - |
| 1777715126 | 38.33° C | 41% | 1005 hPa | - | - | 0 W/m² | - |
| 1777714204 | 37.78° C | 40% | 1005 hPa | - | - | 0 W/m² | - |
| 1777713278 | 38.33° C | 39% | 1005 hPa | - | - | 0 W/m² | - |
| 1777712353 | 38.33° C | 40% | 1005 hPa | - | - | 0 W/m² | - |
| 1777711429 | 38.33° C | 39% | 1005 hPa | - | - | 0 W/m² | - |
| 1777710503 | 37.78° C | 43% | 1005 hPa | - | - | 0 W/m² | - |
| 1777709579 | 38.89° C | 39% | 1006 hPa | - | - | 0 W/m² | - |
| 1777708654 | 37.78° C | 41% | 1006 hPa | - | - | 0 W/m² | - |
| 1777707730 | 38.89° C | 36% | 1006 hPa | - | - | 0 W/m² | - |
| 1777706805 | 38.89° C | 38% | 1006 hPa | - | - | 0 W/m² | - |
| 1777705881 | 37.78° C | 41% | 1007 hPa | - | - | 0 W/m² | - |
| 1777704957 | 38.89° C | 36% | 1007 hPa | - | - | 0 W/m² | - |
| 1777704033 | 38.33° C | 37% | 1007 hPa | - | - | 0 W/m² | - |
| 1777703109 | 37.78° C | 38% | 1007 hPa | - | - | 0 W/m² | - |
| 1777702185 | 38.33° C | 39% | 1008 hPa | - | - | 0 W/m² | - |
| 1777701260 | 38.89° C | 39% | 1008 hPa | - | - | 0 W/m² | - |
| 1777700335 | 39.44° C | 41% | 1008 hPa | - | - | 0 W/m² | - |
| 1777699409 | 38.89° C | 41% | 1008 hPa | - | - | 0 W/m² | - |
| 1777698484 | 38.33° C | 41% | 1009 hPa | - | - | 0 W/m² | - |
| 1777697560 | 38.89° C | 41% | 1009 hPa | - | - | 0 W/m² | - |
| 1777696635 | 38.33° C | 41% | 1009 hPa | - | - | 0 W/m² | - |
| 1777695711 | 38.33° C | 43% | 1009 hPa | - | - | 0 W/m² | - |
| 1777694787 | 38.33° C | 45% | 1009 hPa | - | - | 0 W/m² | - |
| 1777693862 | 37.78° C | 47% | 1009 hPa | - | - | 0 W/m² | - |
* Rain since midnight (hover to see other rain measurements)
** Current wind speed in m/s (hover to see current wind gust speed)